sensor_id;sensor_type;location;lat;lon;timestamp;P1;durP1;ratioP1;P2;durP2;ratioP2
2111;SDS011;1062;52.538;13.400;2022-08-21T00:00:38;6.70;;;6.00;;
2111;SDS011;1062;52.538;13.400;2022-08-21T00:03:05;6.13;;;4.67;;
2111;SDS011;1062;52.538;13.400;2022-08-21T00:05:33;5.90;;;4.73;;
2111;SDS011;1062;52.538;13.400;2022-08-21T00:08:02;7.57;;;5.07;;
2111;SDS011;1062;52.538;13.400;2022-08-21T00:10:28;5.90;;;4.40;;
2111;SDS011;1062;52.538;13.400;2022-08-21T00:12:54;6.67;;;4.83;;
2111;SDS011;1062;52.538;13.400;2022-08-21T00:15:22;8.87;;;5.40;;
2111;SDS011;1062;52.538;13.400;2022-08-21T00:17:51;4.43;;;4.03;;
2111;SDS011;1062;52.538;13.400;2022-08-21T00:20:17;6.03;;;4.40;;
2111;SDS011;1062;52.538;13.400;2022-08-21T00:22:43;5.50;;;5.00;;
2111;SDS011;1062;52.538;13.400;2022-08-21T00:25:10;4.87;;;4.47;;
2111;SDS011;1062;52.538;13.400;2022-08-21T00:27:38;6.37;;;5.13;;
2111;SDS011;1062;52.538;13.400;2022-08-21T00:30:05;5.23;;;4.83;;
2111;SDS011;1062;52.538;13.400;2022-08-21T00:32:32;4.97;;;3.97;;
2111;SDS011;1062;52.538;13.400;2022-08-21T00:34:58;6.23;;;5.10;;
2111;SDS011;1062;52.538;13.400;2022-08-21T00:37:24;5.37;;;4.87;;
2111;SDS011;1062;52.538;13.400;2022-08-21T00:39:50;8.93;;;4.30;;
2111;SDS011;1062;52.538;13.400;2022-08-21T00:42:16;8.20;;;6.33;;
2111;SDS011;1062;52.538;13.400;2022-08-21T00:44:43;4.30;;;3.90;;
2111;SDS011;1062;52.538;13.400;2022-08-21T00:47:10;4.67;;;4.10;;
2111;SDS011;1062;52.538;13.400;2022-08-21T00:49:37;4.67;;;4.23;;
2111;SDS011;1062;52.538;13.400;2022-08-21T00:52:03;5.00;;;4.50;;
2111;SDS011;1062;52.538;13.400;2022-08-21T00:54:33;5.20;;;4.70;;
2111;SDS011;1062;52.538;13.400;2022-08-21T00:57:02;8.40;;;5.80;;
2111;SDS011;1062;52.538;13.400;2022-08-21T00:59:33;7.60;;;4.47;;
2111;SDS011;1062;52.538;13.400;2022-08-21T01:02:01;6.10;;;5.03;;
2111;SDS011;1062;52.538;13.400;2022-08-21T01:04:28;6.20;;;5.60;;
2111;SDS011;1062;52.538;13.400;2022-08-21T01:06:54;5.17;;;4.67;;
2111;SDS011;1062;52.538;13.400;2022-08-21T01:09:20;5.27;;;4.60;;
2111;SDS011;1062;52.538;13.400;2022-08-21T01:11:46;5.73;;;4.93;;
2111;SDS011;1062;52.538;13.400;2022-08-21T01:14:12;5.03;;;4.63;;
2111;SDS011;1062;52.538;13.400;2022-08-21T01:16:43;5.70;;;4.90;;
2111;SDS011;1062;52.538;13.400;2022-08-21T01:19:11;6.77;;;5.20;;
2111;SDS011;1062;52.538;13.400;2022-08-21T01:21:37;5.93;;;5.30;;
2111;SDS011;1062;52.538;13.400;2022-08-21T01:24:03;7.17;;;6.23;;
2111;SDS011;1062;52.538;13.400;2022-08-21T01:26:31;6.83;;;4.97;;
2111;SDS011;1062;52.538;13.400;2022-08-21T01:31:46;6.20;;;5.60;;
2111;SDS011;1062;52.538;13.400;2022-08-21T01:34:12;5.20;;;4.70;;
2111;SDS011;1062;52.538;13.400;2022-08-21T01:36:40;5.77;;;5.27;;
2111;SDS011;1062;52.538;13.400;2022-08-21T01:39:06;5.10;;;4.50;;
2111;SDS011;1062;52.538;13.400;2022-08-21T01:41:32;5.43;;;4.93;;
2111;SDS011;1062;52.538;13.400;2022-08-21T01:43:58;5.77;;;4.37;;
2111;SDS011;1062;52.538;13.400;2022-08-21T01:46:23;5.37;;;4.87;;
2111;SDS011;1062;52.538;13.400;2022-08-21T01:48:49;5.00;;;4.37;;
2111;SDS011;1062;52.538;13.400;2022-08-21T01:51:15;4.70;;;4.30;;
2111;SDS011;1062;52.538;13.400;2022-08-21T01:53:40;6.60;;;4.90;;
2111;SDS011;1062;52.538;13.400;2022-08-21T01:56:07;5.20;;;4.70;;
2111;SDS011;1062;52.538;13.400;2022-08-21T01:58:34;5.97;;;3.73;;
2111;SDS011;1062;52.538;13.400;2022-08-21T02:01:00;4.50;;;3.53;;
2111;SDS011;1062;52.538;13.400;2022-08-21T02:03:26;6.80;;;3.80;;
2111;SDS011;1062;52.538;13.400;2022-08-21T02:05:55;4.10;;;3.70;;
2111;SDS011;1062;52.538;13.400;2022-08-21T02:08:21;5.53;;;4.50;;
2111;SDS011;1062;52.538;13.400;2022-08-21T02:10:48;8.87;;;4.47;;
2111;SDS011;1062;52.538;13.400;2022-08-21T02:13:14;4.73;;;4.40;;
2111;SDS011;1062;52.538;13.400;2022-08-21T02:15:39;4.13;;;3.73;;
2111;SDS011;1062;52.538;13.400;2022-08-21T02:18:05;4.80;;;3.90;;
2111;SDS011;1062;52.538;13.400;2022-08-21T02:20:41;4.87;;;4.37;;
2111;SDS011;1062;52.538;13.400;2022-08-21T02:23:10;3.57;;;3.27;;
2111;SDS011;1062;52.538;13.400;2022-08-21T02:25:36;4.47;;;3.33;;
2111;SDS011;1062;52.538;13.400;2022-08-21T02:28:04;3.93;;;3.53;;
2111;SDS011;1062;52.538;13.400;2022-08-21T02:30:32;3.77;;;3.47;;
2111;SDS011;1062;52.538;13.400;2022-08-21T02:32:59;4.20;;;3.40;;
2111;SDS011;1062;52.538;13.400;2022-08-21T02:35:25;4.63;;;4.23;;
2111;SDS011;1062;52.538;13.400;2022-08-21T02:37:52;3.90;;;3.30;;
2111;SDS011;1062;52.538;13.400;2022-08-21T02:40:22;5.20;;;3.40;;
2111;SDS011;1062;52.538;13.400;2022-08-21T02:42:49;3.33;;;3.10;;
2111;SDS011;1062;52.538;13.400;2022-08-21T02:45:15;6.13;;;4.37;;
2111;SDS011;1062;52.538;13.400;2022-08-21T02:47:52;4.27;;;3.93;;
2111;SDS011;1062;52.538;13.400;2022-08-21T02:50:29;4.73;;;3.63;;
2111;SDS011;1062;52.538;13.400;2022-08-21T02:52:59;5.40;;;4.07;;
2111;SDS011;1062;52.538;13.400;2022-08-21T02:55:26;7.03;;;3.57;;
2111;SDS011;1062;52.538;13.400;2022-08-21T02:57:53;7.30;;;3.60;;
2111;SDS011;1062;52.538;13.400;2022-08-21T03:00:19;4.20;;;3.60;;
2111;SDS011;1062;52.538;13.400;2022-08-21T03:02:46;3.83;;;3.10;;
2111;SDS011;1062;52.538;13.400;2022-08-21T03:05:13;4.10;;;3.70;;
2111;SDS011;1062;52.538;13.400;2022-08-21T03:07:40;4.27;;;3.60;;
2111;SDS011;1062;52.538;13.400;2022-08-21T03:10:07;4.70;;;3.03;;
2111;SDS011;1062;52.538;13.400;2022-08-21T03:12:33;6.83;;;4.43;;
2111;SDS011;1062;52.538;13.400;2022-08-21T03:15:00;3.67;;;3.37;;
2111;SDS011;1062;52.538;13.400;2022-08-21T03:17:31;4.27;;;3.97;;
2111;SDS011;1062;52.538;13.400;2022-08-21T03:19:57;5.50;;;3.07;;
2111;SDS011;1062;52.538;13.400;2022-08-21T03:22:23;3.53;;;2.97;;
2111;SDS011;1062;52.538;13.400;2022-08-21T03:24:49;4.07;;;2.97;;
2111;SDS011;1062;52.538;13.400;2022-08-21T03:27:14;5.57;;;3.30;;
2111;SDS011;1062;52.538;13.400;2022-08-21T03:29:40;3.70;;;2.93;;
2111;SDS011;1062;52.538;13.400;2022-08-21T03:32:06;3.73;;;3.30;;
2111;SDS011;1062;52.538;13.400;2022-08-21T03:34:34;3.20;;;3.00;;
2111;SDS011;1062;52.538;13.400;2022-08-21T03:37:00;2.93;;;2.73;;
2111;SDS011;1062;52.538;13.400;2022-08-21T03:39:26;3.43;;;3.10;;
2111;SDS011;1062;52.538;13.400;2022-08-21T03:41:51;4.27;;;2.90;;
2111;SDS011;1062;52.538;13.400;2022-08-21T03:44:19;3.73;;;3.27;;
2111;SDS011;1062;52.538;13.400;2022-08-21T03:46:44;3.33;;;3.10;;
2111;SDS011;1062;52.538;13.400;2022-08-21T03:49:10;3.37;;;3.07;;
2111;SDS011;1062;52.538;13.400;2022-08-21T03:51:35;4.17;;;2.80;;
2111;SDS011;1062;52.538;13.400;2022-08-21T03:54:01;4.17;;;3.30;;
2111;SDS011;1062;52.538;13.400;2022-08-21T03:56:27;3.20;;;3.00;;
2111;SDS011;1062;52.538;13.400;2022-08-21T03:58:52;3.00;;;2.70;;
2111;SDS011;1062;52.538;13.400;2022-08-21T04:01:18;3.37;;;2.20;;
2111;SDS011;1062;52.538;13.400;2022-08-21T04:03:43;3.30;;;2.63;;
2111;SDS011;1062;52.538;13.400;2022-08-21T04:06:09;3.00;;;2.80;;
2111;SDS011;1062;52.538;13.400;2022-08-21T04:08:35;3.67;;;2.80;;
2111;SDS011;1062;52.538;13.400;2022-08-21T04:11:00;3.57;;;2.47;;
2111;SDS011;1062;52.538;13.400;2022-08-21T04:13:26;4.17;;;2.90;;
2111;SDS011;1062;52.538;13.400;2022-08-21T04:15:53;8.50;;;3.47;;
2111;SDS011;1062;52.538;13.400;2022-08-21T04:18:19;3.87;;;3.07;;
2111;SDS011;1062;52.538;13.400;2022-08-21T04:20:46;4.93;;;2.70;;
2111;SDS011;1062;52.538;13.400;2022-08-21T04:23:15;4.43;;;3.10;;
2111;SDS011;1062;52.538;13.400;2022-08-21T04:25:42;2.73;;;2.20;;
2111;SDS011;1062;52.538;13.400;2022-08-21T04:28:09;4.70;;;2.50;;
2111;SDS011;1062;52.538;13.400;2022-08-21T04:30:34;3.10;;;2.80;;
2111;SDS011;1062;52.538;13.400;2022-08-21T04:33:00;3.50;;;2.90;;
2111;SDS011;1062;52.538;13.400;2022-08-21T04:35:26;3.20;;;2.57;;
2111;SDS011;1062;52.538;13.400;2022-08-21T04:37:52;2.37;;;2.17;;
2111;SDS011;1062;52.538;13.400;2022-08-21T04:40:19;3.00;;;2.60;;
2111;SDS011;1062;52.538;13.400;2022-08-21T04:42:47;4.70;;;2.93;;
2111;SDS011;1062;52.538;13.400;2022-08-21T04:45:20;3.70;;;2.87;;
2111;SDS011;1062;52.538;13.400;2022-08-21T04:47:50;5.20;;;2.50;;
2111;SDS011;1062;52.538;13.400;2022-08-21T04:50:16;2.13;;;2.00;;
2111;SDS011;1062;52.538;13.400;2022-08-21T04:52:42;5.33;;;2.63;;
2111;SDS011;1062;52.538;13.400;2022-08-21T04:55:08;2.60;;;2.40;;
2111;SDS011;1062;52.538;13.400;2022-08-21T04:57:34;2.53;;;2.33;;
2111;SDS011;1062;52.538;13.400;2022-08-21T05:00:00;3.10;;;2.50;;
2111;SDS011;1062;52.538;13.400;2022-08-21T05:02:28;4.17;;;2.60;;
2111;SDS011;1062;52.538;13.400;2022-08-21T05:04:54;2.20;;;2.10;;
2111;SDS011;1062;52.538;13.400;2022-08-21T05:07:22;3.00;;;2.50;;
2111;SDS011;1062;52.538;13.400;2022-08-21T05:09:51;6.60;;;2.27;;
2111;SDS011;1062;52.538;13.400;2022-08-21T05:12:18;3.67;;;2.83;;
2111;SDS011;1062;52.538;13.400;2022-08-21T05:14:44;5.80;;;2.50;;
2111;SDS011;1062;52.538;13.400;2022-08-21T05:17:09;3.60;;;2.70;;
2111;SDS011;1062;52.538;13.400;2022-08-21T05:19:35;4.03;;;2.50;;
2111;SDS011;1062;52.538;13.400;2022-08-21T05:22:01;3.53;;;2.30;;
2111;SDS011;1062;52.538;13.400;2022-08-21T05:24:27;4.93;;;2.10;;
2111;SDS011;1062;52.538;13.400;2022-08-21T05:26:53;4.37;;;2.43;;
2111;SDS011;1062;52.538;13.400;2022-08-21T05:29:19;3.77;;;2.00;;
2111;SDS011;1062;52.538;13.400;2022-08-21T05:31:45;9.80;;;2.27;;
2111;SDS011;1062;52.538;13.400;2022-08-21T05:34:12;2.50;;;2.23;;
2111;SDS011;1062;52.538;13.400;2022-08-21T05:36:39;4.27;;;2.50;;
2111;SDS011;1062;52.538;13.400;2022-08-21T05:39:04;2.70;;;2.30;;
2111;SDS011;1062;52.538;13.400;2022-08-21T05:41:30;3.10;;;2.47;;
2111;SDS011;1062;52.538;13.400;2022-08-21T05:43:55;2.77;;;2.27;;
2111;SDS011;1062;52.538;13.400;2022-08-21T05:46:21;3.10;;;2.40;;
2111;SDS011;1062;52.538;13.400;2022-08-21T05:48:47;3.00;;;1.90;;
2111;SDS011;1062;52.538;13.400;2022-08-21T05:51:13;2.03;;;1.93;;
2111;SDS011;1062;52.538;13.400;2022-08-21T05:53:40;3.20;;;2.43;;
2111;SDS011;1062;52.538;13.400;2022-08-21T05:56:07;2.83;;;2.17;;
2111;SDS011;1062;52.538;13.400;2022-08-21T05:58:33;4.63;;;2.33;;
2111;SDS011;1062;52.538;13.400;2022-08-21T06:00:59;4.03;;;2.07;;
2111;SDS011;1062;52.538;13.400;2022-08-21T06:03:28;1.73;;;1.60;;
2111;SDS011;1062;52.538;13.400;2022-08-21T06:05:56;3.80;;;1.77;;
2111;SDS011;1062;52.538;13.400;2022-08-21T06:08:22;2.53;;;1.57;;
2111;SDS011;1062;52.538;13.400;2022-08-21T06:10:49;2.50;;;1.90;;
2111;SDS011;1062;52.538;13.400;2022-08-21T06:13:16;6.33;;;1.93;;
2111;SDS011;1062;52.538;13.400;2022-08-21T06:15:43;3.47;;;1.83;;
2111;SDS011;1062;52.538;13.400;2022-08-21T06:18:10;2.60;;;1.93;;
2111;SDS011;1062;52.538;13.400;2022-08-21T06:20:36;1.90;;;1.40;;
2111;SDS011;1062;52.538;13.400;2022-08-21T06:23:01;2.30;;;2.10;;
2111;SDS011;1062;52.538;13.400;2022-08-21T06:25:27;2.33;;;1.80;;
2111;SDS011;1062;52.538;13.400;2022-08-21T06:27:53;1.80;;;1.40;;
2111;SDS011;1062;52.538;13.400;2022-08-21T06:30:26;5.90;;;2.00;;
2111;SDS011;1062;52.538;13.400;2022-08-21T06:32:52;3.50;;;1.73;;
2111;SDS011;1062;52.538;13.400;2022-08-21T06:35:17;5.20;;;2.30;;
2111;SDS011;1062;52.538;13.400;2022-08-21T06:37:43;4.53;;;2.10;;
2111;SDS011;1062;52.538;13.400;2022-08-21T06:40:09;6.67;;;2.27;;
2111;SDS011;1062;52.538;13.400;2022-08-21T06:42:34;3.53;;;2.00;;
2111;SDS011;1062;52.538;13.400;2022-08-21T06:45:00;2.27;;;2.00;;
2111;SDS011;1062;52.538;13.400;2022-08-21T06:47:26;3.50;;;2.20;;
2111;SDS011;1062;52.538;13.400;2022-08-21T06:49:51;6.93;;;2.17;;
2111;SDS011;1062;52.538;13.400;2022-08-21T06:52:17;7.23;;;2.50;;
2111;SDS011;1062;52.538;13.400;2022-08-21T06:54:42;3.63;;;2.13;;
2111;SDS011;1062;52.538;13.400;2022-08-21T06:57:08;6.87;;;2.27;;
2111;SDS011;1062;52.538;13.400;2022-08-21T06:59:34;2.13;;;1.77;;
2111;SDS011;1062;52.538;13.400;2022-08-21T07:01:59;2.70;;;1.70;;
2111;SDS011;1062;52.538;13.400;2022-08-21T07:04:25;2.73;;;1.73;;
2111;SDS011;1062;52.538;13.400;2022-08-21T07:06:51;3.10;;;1.60;;
2111;SDS011;1062;52.538;13.400;2022-08-21T07:09:16;2.60;;;1.60;;
2111;SDS011;1062;52.538;13.400;2022-08-21T07:11:42;3.50;;;2.20;;
2111;SDS011;1062;52.538;13.400;2022-08-21T07:14:12;3.70;;;1.60;;
2111;SDS011;1062;52.538;13.400;2022-08-21T07:16:38;3.10;;;1.80;;
2111;SDS011;1062;52.538;13.400;2022-08-21T07:19:03;2.60;;;1.70;;
2111;SDS011;1062;52.538;13.400;2022-08-21T07:21:29;4.20;;;1.67;;
2111;SDS011;1062;52.538;13.400;2022-08-21T07:23:54;1.70;;;1.20;;
2111;SDS011;1062;52.538;13.400;2022-08-21T07:26:20;4.50;;;1.37;;
2111;SDS011;1062;52.538;13.400;2022-08-21T07:28:48;3.13;;;1.60;;
2111;SDS011;1062;52.538;13.400;2022-08-21T07:31:15;3.43;;;1.27;;
2111;SDS011;1062;52.538;13.400;2022-08-21T07:33:42;4.10;;;1.23;;
2111;SDS011;1062;52.538;13.400;2022-08-21T07:36:08;5.33;;;2.40;;
2111;SDS011;1062;52.538;13.400;2022-08-21T07:38:34;6.17;;;1.63;;
2111;SDS011;1062;52.538;13.400;2022-08-21T07:41:00;2.93;;;1.27;;
2111;SDS011;1062;52.538;13.400;2022-08-21T07:43:31;2.10;;;1.30;;
2111;SDS011;1062;52.538;13.400;2022-08-21T07:45:56;1.80;;;1.23;;
2111;SDS011;1062;52.538;13.400;2022-08-21T07:48:22;3.23;;;1.30;;
2111;SDS011;1062;52.538;13.400;2022-08-21T07:50:48;2.27;;;1.30;;
2111;SDS011;1062;52.538;13.400;2022-08-21T07:53:14;1.40;;;1.07;;
2111;SDS011;1062;52.538;13.400;2022-08-21T07:55:40;2.30;;;1.37;;
2111;SDS011;1062;52.538;13.400;2022-08-21T07:58:06;1.77;;;1.30;;
2111;SDS011;1062;52.538;13.400;2022-08-21T08:00:32;4.00;;;1.10;;
2111;SDS011;1062;52.538;13.400;2022-08-21T08:02:58;1.50;;;1.40;;
2111;SDS011;1062;52.538;13.400;2022-08-21T08:05:25;1.07;;;0.97;;
2111;SDS011;1062;52.538;13.400;2022-08-21T08:07:53;1.43;;;0.90;;
2111;SDS011;1062;52.538;13.400;2022-08-21T08:10:19;1.47;;;1.10;;
2111;SDS011;1062;52.538;13.400;2022-08-21T08:12:46;1.60;;;1.30;;
2111;SDS011;1062;52.538;13.400;2022-08-21T08:15:15;1.40;;;1.20;;
2111;SDS011;1062;52.538;13.400;2022-08-21T08:17:44;2.30;;;1.33;;
2111;SDS011;1062;52.538;13.400;2022-08-21T08:20:10;2.63;;;1.10;;
2111;SDS011;1062;52.538;13.400;2022-08-21T08:22:38;1.47;;;0.97;;
2111;SDS011;1062;52.538;13.400;2022-08-21T08:25:05;1.70;;;1.60;;
2111;SDS011;1062;52.538;13.400;2022-08-21T08:27:31;2.30;;;1.37;;
2111;SDS011;1062;52.538;13.400;2022-08-21T08:29:57;2.17;;;0.90;;
2111;SDS011;1062;52.538;13.400;2022-08-21T08:32:23;1.77;;;1.30;;
2111;SDS011;1062;52.538;13.400;2022-08-21T08:34:49;3.00;;;1.37;;
2111;SDS011;1062;52.538;13.400;2022-08-21T08:37:17;1.23;;;1.00;;
2111;SDS011;1062;52.538;13.400;2022-08-21T08:39:43;1.67;;;0.90;;
2111;SDS011;1062;52.538;13.400;2022-08-21T08:42:13;1.23;;;1.07;;
2111;SDS011;1062;52.538;13.400;2022-08-21T08:44:49;1.77;;;1.00;;
2111;SDS011;1062;52.538;13.400;2022-08-21T08:47:38;2.33;;;1.43;;
2111;SDS011;1062;52.538;13.400;2022-08-21T08:50:15;1.77;;;1.13;;
2111;SDS011;1062;52.538;13.400;2022-08-21T08:53:01;2.13;;;1.20;;
2111;SDS011;1062;52.538;13.400;2022-08-21T08:55:34;1.57;;;1.00;;
2111;SDS011;1062;52.538;13.400;2022-08-21T08:58:19;3.27;;;1.20;;
2111;SDS011;1062;52.538;13.400;2022-08-21T09:00:51;3.37;;;1.20;;
2111;SDS011;1062;52.538;13.400;2022-08-21T09:03:18;2.80;;;1.50;;
2111;SDS011;1062;52.538;13.400;2022-08-21T09:05:47;2.93;;;2.03;;
2111;SDS011;1062;52.538;13.400;2022-08-21T09:11:26;2.43;;;1.20;;
2111;SDS011;1062;52.538;13.400;2022-08-21T09:14:01;3.90;;;1.20;;
2111;SDS011;1062;52.538;13.400;2022-08-21T09:16:42;2.47;;;1.33;;
2111;SDS011;1062;52.538;13.400;2022-08-21T09:19:18;3.80;;;1.83;;
2111;SDS011;1062;52.538;13.400;2022-08-21T09:22:08;1.67;;;1.10;;
2111;SDS011;1062;52.538;13.400;2022-08-21T09:25:02;1.70;;;1.20;;
2111;SDS011;1062;52.538;13.400;2022-08-21T09:27:46;2.13;;;1.30;;
2111;SDS011;1062;52.538;13.400;2022-08-21T09:30:11;1.40;;;1.10;;
2111;SDS011;1062;52.538;13.400;2022-08-21T09:32:38;3.50;;;1.30;;
2111;SDS011;1062;52.538;13.400;2022-08-21T09:35:14;1.67;;;1.30;;
2111;SDS011;1062;52.538;13.400;2022-08-21T09:40:29;2.30;;;1.40;;
2111;SDS011;1062;52.538;13.400;2022-08-21T09:43:02;1.67;;;1.43;;
2111;SDS011;1062;52.538;13.400;2022-08-21T09:45:34;2.33;;;1.43;;
2111;SDS011;1062;52.538;13.400;2022-08-21T09:50:40;2.70;;;1.27;;
2111;SDS011;1062;52.538;13.400;2022-08-21T09:53:14;1.10;;;0.87;;
2111;SDS011;1062;52.538;13.400;2022-08-21T09:56:16;1.20;;;1.10;;
2111;SDS011;1062;52.538;13.400;2022-08-21T09:59:16;3.23;;;1.23;;
2111;SDS011;1062;52.538;13.400;2022-08-21T10:02:01;2.70;;;1.50;;
2111;SDS011;1062;52.538;13.400;2022-08-21T10:04:39;2.30;;;1.40;;
2111;SDS011;1062;52.538;13.400;2022-08-21T10:07:12;3.00;;;1.30;;
2111;SDS011;1062;52.538;13.400;2022-08-21T10:09:39;1.70;;;1.30;;
2111;SDS011;1062;52.538;13.400;2022-08-21T10:20:13;2.90;;;1.57;;
2111;SDS011;1062;52.538;13.400;2022-08-21T10:30:42;3.13;;;1.13;;
2111;SDS011;1062;52.538;13.400;2022-08-21T10:38:52;2.13;;;1.53;;
2111;SDS011;1062;52.538;13.400;2022-08-21T10:44:19;1.63;;;1.20;;
2111;SDS011;1062;52.538;13.400;2022-08-21T10:47:01;5.77;;;1.60;;
2111;SDS011;1062;52.538;13.400;2022-08-21T11:00:22;1.23;;;1.00;;
2111;SDS011;1062;52.538;13.400;2022-08-21T11:05:39;2.50;;;1.30;;
2111;SDS011;1062;52.538;13.400;2022-08-21T11:08:14;2.60;;;1.30;;
2111;SDS011;1062;52.538;13.400;2022-08-21T11:10:56;3.90;;;1.17;;
2111;SDS011;1062;52.538;13.400;2022-08-21T11:16:00;2.23;;;1.03;;
2111;SDS011;1062;52.538;13.400;2022-08-21T11:18:37;1.30;;;1.10;;
2111;SDS011;1062;52.538;13.400;2022-08-21T11:23:45;1.50;;;1.10;;
2111;SDS011;1062;52.538;13.400;2022-08-21T11:26:18;1.70;;;1.00;;
2111;SDS011;1062;52.538;13.400;2022-08-21T11:34:31;2.10;;;1.00;;
2111;SDS011;1062;52.538;13.400;2022-08-21T11:37:23;1.60;;;0.87;;
2111;SDS011;1062;52.538;13.400;2022-08-21T11:42:47;2.17;;;1.03;;
2111;SDS011;1062;52.538;13.400;2022-08-21T11:45:28;1.10;;;1.00;;
2111;SDS011;1062;52.538;13.400;2022-08-21T11:51:15;1.00;;;0.90;;
2111;SDS011;1062;52.538;13.400;2022-08-21T11:56:45;1.60;;;0.90;;
2111;SDS011;1062;52.538;13.400;2022-08-21T12:02:15;1.07;;;0.97;;
2111;SDS011;1062;52.538;13.400;2022-08-21T12:04:55;2.20;;;1.10;;
2111;SDS011;1062;52.538;13.400;2022-08-21T12:07:29;1.47;;;1.20;;
2111;SDS011;1062;52.538;13.400;2022-08-21T12:10:04;1.17;;;0.90;;
2111;SDS011;1062;52.538;13.400;2022-08-21T12:12:45;4.67;;;1.37;;
2111;SDS011;1062;52.538;13.400;2022-08-21T12:20:22;1.37;;;1.00;;
2111;SDS011;1062;52.538;13.400;2022-08-21T12:22:55;2.17;;;1.20;;
2111;SDS011;1062;52.538;13.400;2022-08-21T12:25:36;1.33;;;1.10;;
2111;SDS011;1062;52.538;13.400;2022-08-21T12:28:11;1.00;;;0.80;;
2111;SDS011;1062;52.538;13.400;2022-08-21T12:30:41;1.83;;;1.00;;
2111;SDS011;1062;52.538;13.400;2022-08-21T12:36:13;2.10;;;1.00;;
2111;SDS011;1062;52.538;13.400;2022-08-21T12:38:47;2.13;;;1.00;;
2111;SDS011;1062;52.538;13.400;2022-08-21T12:41:27;1.03;;;0.77;;
2111;SDS011;1062;52.538;13.400;2022-08-21T12:44:02;0.80;;;0.80;;
2111;SDS011;1062;52.538;13.400;2022-08-21T12:46:38;1.63;;;1.37;;
2111;SDS011;1062;52.538;13.400;2022-08-21T12:51:55;1.13;;;1.03;;
2111;SDS011;1062;52.538;13.400;2022-08-21T12:54:26;1.90;;;0.97;;
2111;SDS011;1062;52.538;13.400;2022-08-21T12:56:58;1.13;;;0.90;;
2111;SDS011;1062;52.538;13.400;2022-08-21T12:59:29;1.30;;;1.10;;
2111;SDS011;1062;52.538;13.400;2022-08-21T13:01:56;1.80;;;1.10;;
2111;SDS011;1062;52.538;13.400;2022-08-21T13:04:27;1.87;;;0.83;;
2111;SDS011;1062;52.538;13.400;2022-08-21T13:07:05;3.37;;;1.10;;
2111;SDS011;1062;52.538;13.400;2022-08-21T13:09:36;1.90;;;1.30;;
2111;SDS011;1062;52.538;13.400;2022-08-21T13:12:11;1.10;;;0.90;;
2111;SDS011;1062;52.538;13.400;2022-08-21T13:14:39;1.10;;;0.80;;
2111;SDS011;1062;52.538;13.400;2022-08-21T13:17:07;1.80;;;0.90;;
2111;SDS011;1062;52.538;13.400;2022-08-21T13:19:35;1.60;;;1.30;;
2111;SDS011;1062;52.538;13.400;2022-08-21T13:22:01;2.17;;;1.20;;
2111;SDS011;1062;52.538;13.400;2022-08-21T13:24:29;1.33;;;0.90;;
2111;SDS011;1062;52.538;13.400;2022-08-21T13:26:57;3.70;;;1.37;;
2111;SDS011;1062;52.538;13.400;2022-08-21T13:29:27;1.70;;;1.30;;
2111;SDS011;1062;52.538;13.400;2022-08-21T13:32:02;1.87;;;1.07;;
2111;SDS011;1062;52.538;13.400;2022-08-21T13:34:36;2.03;;;1.50;;
2111;SDS011;1062;52.538;13.400;2022-08-21T13:37:07;1.93;;;1.40;;
2111;SDS011;1062;52.538;13.400;2022-08-21T13:39:34;1.83;;;1.50;;
2111;SDS011;1062;52.538;13.400;2022-08-21T13:42:00;1.90;;;1.57;;
2111;SDS011;1062;52.538;13.400;2022-08-21T13:44:32;2.93;;;1.50;;
2111;SDS011;1062;52.538;13.400;2022-08-21T13:47:07;3.23;;;1.43;;
2111;SDS011;1062;52.538;13.400;2022-08-21T13:49:37;1.30;;;1.20;;
2111;SDS011;1062;52.538;13.400;2022-08-21T13:52:12;1.60;;;1.20;;
2111;SDS011;1062;52.538;13.400;2022-08-21T13:54:51;1.63;;;1.20;;
2111;SDS011;1062;52.538;13.400;2022-08-21T13:57:26;1.07;;;0.97;;
2111;SDS011;1062;52.538;13.400;2022-08-21T14:00:13;1.60;;;1.30;;
2111;SDS011;1062;52.538;13.400;2022-08-21T14:02:40;3.83;;;2.30;;
2111;SDS011;1062;52.538;13.400;2022-08-21T14:05:13;2.27;;;1.57;;
2111;SDS011;1062;52.538;13.400;2022-08-21T14:07:42;1.70;;;1.57;;
2111;SDS011;1062;52.538;13.400;2022-08-21T14:10:17;1.50;;;1.13;;
2111;SDS011;1062;52.538;13.400;2022-08-21T14:12:52;5.43;;;2.23;;
2111;SDS011;1062;52.538;13.400;2022-08-21T14:15:25;1.90;;;1.63;;
2111;SDS011;1062;52.538;13.400;2022-08-21T14:17:54;3.03;;;1.30;;
2111;SDS011;1062;52.538;13.400;2022-08-21T14:20:33;3.20;;;1.40;;
2111;SDS011;1062;52.538;13.400;2022-08-21T14:22:59;3.77;;;1.50;;
2111;SDS011;1062;52.538;13.400;2022-08-21T14:27:57;2.03;;;1.20;;
2111;SDS011;1062;52.538;13.400;2022-08-21T14:30:36;1.53;;;1.40;;
2111;SDS011;1062;52.538;13.400;2022-08-21T14:33:07;3.50;;;1.50;;
2111;SDS011;1062;52.538;13.400;2022-08-21T14:35:35;2.77;;;1.57;;
2111;SDS011;1062;52.538;13.400;2022-08-21T14:38:00;3.47;;;1.70;;
2111;SDS011;1062;52.538;13.400;2022-08-21T14:40:26;2.90;;;1.70;;
2111;SDS011;1062;52.538;13.400;2022-08-21T14:42:52;1.43;;;1.20;;
2111;SDS011;1062;52.538;13.400;2022-08-21T14:45:20;1.73;;;1.60;;
2111;SDS011;1062;52.538;13.400;2022-08-21T14:47:51;2.10;;;1.50;;
2111;SDS011;1062;52.538;13.400;2022-08-21T14:50:17;1.30;;;1.20;;
2111;SDS011;1062;52.538;13.400;2022-08-21T14:52:42;2.93;;;1.53;;
2111;SDS011;1062;52.538;13.400;2022-08-21T14:55:10;1.57;;;1.37;;
2111;SDS011;1062;52.538;13.400;2022-08-21T14:57:38;1.60;;;1.10;;
2111;SDS011;1062;52.538;13.400;2022-08-21T15:00:17;2.60;;;1.53;;
2111;SDS011;1062;52.538;13.400;2022-08-21T15:02:45;1.67;;;1.50;;
2111;SDS011;1062;52.538;13.400;2022-08-21T15:05:11;1.80;;;1.70;;
2111;SDS011;1062;52.538;13.400;2022-08-21T15:07:38;1.63;;;1.53;;
2111;SDS011;1062;52.538;13.400;2022-08-21T15:10:04;1.70;;;1.60;;
2111;SDS011;1062;52.538;13.400;2022-08-21T15:12:31;2.57;;;1.20;;
2111;SDS011;1062;52.538;13.400;2022-08-21T15:14:57;1.63;;;1.40;;
2111;SDS011;1062;52.538;13.400;2022-08-21T15:17:22;2.03;;;1.63;;
2111;SDS011;1062;52.538;13.400;2022-08-21T15:19:48;2.17;;;1.60;;
2111;SDS011;1062;52.538;13.400;2022-08-21T15:22:14;2.00;;;1.40;;
2111;SDS011;1062;52.538;13.400;2022-08-21T15:24:39;5.53;;;1.90;;
2111;SDS011;1062;52.538;13.400;2022-08-21T15:27:06;2.50;;;1.53;;
2111;SDS011;1062;52.538;13.400;2022-08-21T15:29:34;2.70;;;1.50;;
2111;SDS011;1062;52.538;13.400;2022-08-21T15:32:15;2.40;;;1.43;;
2111;SDS011;1062;52.538;13.400;2022-08-21T15:34:41;2.70;;;1.90;;
2111;SDS011;1062;52.538;13.400;2022-08-21T15:37:06;1.60;;;1.50;;
2111;SDS011;1062;52.538;13.400;2022-08-21T15:39:33;2.50;;;1.33;;
2111;SDS011;1062;52.538;13.400;2022-08-21T15:42:00;1.80;;;1.40;;
2111;SDS011;1062;52.538;13.400;2022-08-21T15:44:26;2.93;;;1.47;;
2111;SDS011;1062;52.538;13.400;2022-08-21T15:46:53;6.10;;;3.00;;
2111;SDS011;1062;52.538;13.400;2022-08-21T15:49:19;1.97;;;1.50;;
2111;SDS011;1062;52.538;13.400;2022-08-21T15:51:45;1.37;;;1.20;;
2111;SDS011;1062;52.538;13.400;2022-08-21T15:54:10;4.13;;;1.70;;
2111;SDS011;1062;52.538;13.400;2022-08-21T15:56:36;1.73;;;1.20;;
2111;SDS011;1062;52.538;13.400;2022-08-21T15:59:08;1.70;;;1.60;;
2111;SDS011;1062;52.538;13.400;2022-08-21T16:01:38;1.83;;;1.43;;
2111;SDS011;1062;52.538;13.400;2022-08-21T16:04:04;1.53;;;1.30;;
2111;SDS011;1062;52.538;13.400;2022-08-21T16:06:31;3.87;;;2.37;;
2111;SDS011;1062;52.538;13.400;2022-08-21T16:08:57;6.53;;;1.70;;
2111;SDS011;1062;52.538;13.400;2022-08-21T16:11:22;3.37;;;1.50;;
2111;SDS011;1062;52.538;13.400;2022-08-21T16:13:48;2.53;;;2.33;;
2111;SDS011;1062;52.538;13.400;2022-08-21T16:16:16;2.07;;;1.53;;
2111;SDS011;1062;52.538;13.400;2022-08-21T16:18:44;2.20;;;1.43;;
2111;SDS011;1062;52.538;13.400;2022-08-21T16:21:11;2.43;;;2.10;;
2111;SDS011;1062;52.538;13.400;2022-08-21T16:23:36;3.37;;;1.40;;
2111;SDS011;1062;52.538;13.400;2022-08-21T16:26:03;1.60;;;1.50;;
2111;SDS011;1062;52.538;13.400;2022-08-21T16:28:30;2.70;;;1.60;;
2111;SDS011;1062;52.538;13.400;2022-08-21T16:30:58;2.90;;;1.80;;
2111;SDS011;1062;52.538;13.400;2022-08-21T16:33:29;3.53;;;2.00;;
2111;SDS011;1062;52.538;13.400;2022-08-21T16:35:59;2.07;;;1.53;;